Time;durP1;ratioP1;P1;durP2;ratioP2;P2;SDS_P1;SDS_P2;PMS_P1;PMS_P2;Temp;Humidity;BMP_temperature;BMP_pressure;BME280_temperature;BME280_humidity;BME280_pressure;Samples;Min_cycle;Max_cycle;Signal;HPM_P1;HPM_P2
2022/12/31 00:00:33;;;;;;;0.45;0.35;;;12.90;86.90;;;;;;4979041;28;20146;-61
2022/12/31 00:02:59;;;;;;;0.95;0.43;;;12.90;86.90;;;;;;4980686;28;20058;-62
2022/12/31 00:05:25;;;;;;;0.50;0.22;;;12.90;86.90;;;;;;4979753;28;20055;-61
2022/12/31 00:07:50;;;;;;;0.40;0.38;;;12.90;86.70;;;;;;4975262;28;20058;-62
2022/12/31 00:10:16;;;;;;;0.40;0.40;;;12.90;86.60;;;;;;4980263;28;20113;-61
2022/12/31 00:12:42;;;;;;;1.60;0.30;;;12.90;86.60;;;;;;4962027;28;20450;-61
2022/12/31 00:15:08;;;;;;;0.60;0.45;;;12.90;86.40;;;;;;4976854;28;20043;-60
2022/12/31 00:17:33;;;;;;;0.50;0.40;;;13.00;86.40;;;;;;4978000;28;20081;-61
2022/12/31 00:19:59;;;;;;;0.40;0.40;;;13.00;86.30;;;;;;4976405;28;20038;-61
2022/12/31 00:22:24;;;;;;;0.32;0.32;;;13.00;86.20;;;;;;4979306;28;20041;-60
2022/12/31 00:24:50;;;;;;;0.65;0.30;;;13.00;86.20;;;;;;4985602;28;20066;-59
2022/12/31 00:27:15;;;;;;;1.48;0.40;;;13.00;86.00;;;;;;4982489;28;20695;-61
2022/12/31 00:29:41;;;;;;;0.43;0.40;;;13.00;86.00;;;;;;4983369;28;20066;-63
2022/12/31 00:32:07;;;;;;;1.05;0.40;;;13.00;85.90;;;;;;4983835;28;20038;-63
2022/12/31 00:34:32;;;;;;;0.40;0.30;;;13.10;85.90;;;;;;4982786;28;20375;-61
2022/12/31 00:36:58;;;;;;;0.60;0.40;;;13.10;85.70;;;;;;4984294;28;20038;-61
2022/12/31 00:39:23;;;;;;;0.55;0.50;;;13.10;85.70;;;;;;4972948;28;20034;-63
2022/12/31 00:41:49;;;;;;;0.50;0.40;;;13.10;85.50;;;;;;4971362;28;20042;-61
2022/12/31 00:44:14;;;;;;;1.55;0.77;;;13.10;85.40;;;;;;4974593;28;20058;-62
2022/12/31 00:46:40;;;;;;;0.40;0.40;;;13.10;85.30;;;;;;4973798;28;22161;-61
2022/12/31 00:49:06;;;;;;;0.73;0.40;;;13.10;85.30;;;;;;4970717;28;20041;-61
2022/12/31 00:51:32;;;;;;;0.40;0.40;;;13.10;85.20;;;;;;4969593;28;20050;-62
2022/12/31 00:53:57;;;;;;;0.40;0.40;;;13.10;85.10;;;;;;4971145;28;20129;-62
2022/12/31 00:56:26;;;;;;;0.50;0.50;;;13.10;85.00;;;;;;4970737;28;20133;-62
2022/12/31 00:58:52;;;;;;;0.60;0.60;;;13.10;84.80;;;;;;4971666;28;20071;-61
2022/12/31 01:01:23;;;;;;;0.55;0.55;;;13.10;84.80;;;;;;4971928;28;20046;-60
2022/12/31 01:03:52;;;;;;;0.63;0.50;;;13.10;84.60;;;;;;4972515;28;20035;-62
2022/12/31 01:06:19;;;;;;;0.60;0.50;;;13.10;84.60;;;;;;4969321;28;20367;-63
2022/12/31 01:08:47;;;;;;;0.50;0.50;;;13.00;84.50;;;;;;4974879;28;20501;-62
2022/12/31 01:11:20;;;;;;;0.55;0.55;;;13.00;84.60;;;;;;4973505;28;20034;-59
2022/12/31 01:14:14;;;;;;;0.60;0.50;;;13.00;84.50;;;;;;4973374;28;20083;-62
2022/12/31 01:16:42;;;;;;;0.60;0.60;;;13.00;84.40;;;;;;4972760;28;20034;-60
2022/12/31 01:19:14;;;;;;;0.60;0.60;;;13.00;84.50;;;;;;4975245;28;20996;-60
2022/12/31 01:21:41;;;;;;;0.70;0.50;;;13.00;84.50;;;;;;4972326;28;20079;-61
2022/12/31 01:24:08;;;;;;;0.70;0.50;;;13.00;84.50;;;;;;4985080;28;20046;-60
2022/12/31 01:26:34;;;;;;;0.60;0.60;;;13.00;84.60;;;;;;4986222;28;20057;-60
2022/12/31 01:28:59;;;;;;;0.95;0.60;;;13.00;84.60;;;;;;4985570;28;20042;-62
2022/12/31 01:31:26;;;;;;;0.50;0.50;;;13.00;84.60;;;;;;4974218;28;20031;-62
2022/12/31 01:33:52;;;;;;;0.77;0.60;;;12.90;84.60;;;;;;4984901;28;20042;-61
2022/12/31 01:36:24;;;;;;;1.08;0.60;;;12.90;84.70;;;;;;4969566;28;20042;-63
2022/12/31 01:38:50;;;;;;;0.88;0.52;;;13.00;84.80;;;;;;4977253;28;21225;-61
2022/12/31 01:41:20;;;;;;;0.68;0.63;;;12.90;84.80;;;;;;4972916;28;20049;-63
2022/12/31 01:43:53;;;;;;;0.40;0.38;;;13.00;84.80;;;;;;4975412;28;20465;-61
2022/12/31 01:46:47;;;;;;;0.52;0.40;;;13.00;84.80;;;;;;4974738;28;20046;-62
2022/12/31 01:49:12;;;;;;;1.40;0.80;;;13.00;84.80;;;;;;4976959;28;20449;-62
2022/12/31 01:51:41;;;;;;;1.70;0.63;;;13.00;84.80;;;;;;4970168;28;20035;-63
2022/12/31 01:54:09;;;;;;;0.93;0.55;;;13.00;84.80;;;;;;4975179;28;20374;-62
2022/12/31 01:56:35;;;;;;;0.60;0.60;;;13.00;84.80;;;;;;4972604;28;20046;-62
2022/12/31 01:59:05;;;;;;;0.47;0.35;;;13.00;84.80;;;;;;4974649;28;20186;-61
2022/12/31 02:01:32;;;;;;;0.50;0.40;;;13.10;84.80;;;;;;4973194;28;20046;-62
2022/12/31 02:04:04;;;;;;;0.43;0.30;;;13.10;84.80;;;;;;4974871;28;20079;-62
2022/12/31 02:06:39;;;;;;;0.40;0.30;;;13.10;84.80;;;;;;4973244;28;20027;-61
2022/12/31 02:09:06;;;;;;;0.30;0.30;;;13.10;84.80;;;;;;4973054;28;20049;-60
2022/12/31 02:11:36;;;;;;;0.82;0.40;;;13.10;84.70;;;;;;4971543;28;20545;-62
2022/12/31 02:14:10;;;;;;;0.52;0.32;;;13.10;84.60;;;;;;4975114;28;20046;-62
2022/12/31 02:16:44;;;;;;;0.75;0.40;;;13.20;84.60;;;;;;4971707;28;20038;-62
2022/12/31 02:19:39;;;;;;;0.90;0.30;;;13.20;84.60;;;;;;4976283;28;20030;-61
2022/12/31 02:22:27;;;;;;;0.80;0.35;;;13.20;84.50;;;;;;4976677;28;20065;-61
2022/12/31 02:25:10;;;;;;;0.30;0.30;;;13.20;84.50;;;;;;4984203;28;20402;-61
2022/12/31 02:27:54;;;;;;;0.90;0.50;;;13.30;84.50;;;;;;4987922;28;20291;-61
2022/12/31 02:30:22;;;;;;;0.60;0.28;;;13.30;84.30;;;;;;4976904;28;20730;-61
2022/12/31 02:33:08;;;;;;;0.40;0.25;;;13.30;84.30;;;;;;4969756;28;20072;-62
2022/12/31 02:35:41;;;;;;;0.30;0.20;;;13.30;84.30;;;;;;4975160;28;20037;-61
2022/12/31 02:38:12;;;;;;;0.60;0.40;;;13.30;84.20;;;;;;4969552;28;20464;-62
2022/12/31 02:40:38;;;;;;;0.30;0.30;;;13.30;84.20;;;;;;4974789;28;20031;-62
2022/12/31 02:43:04;;;;;;;0.50;0.22;;;13.30;84.30;;;;;;4972911;28;20092;-61
2022/12/31 02:45:41;;;;;;;0.57;0.25;;;13.30;84.30;;;;;;4972272;28;20161;-61
2022/12/31 02:48:15;;;;;;;0.60;0.43;;;13.30;84.30;;;;;;4973384;28;20058;-63
2022/12/31 02:51:11;;;;;;;0.30;0.22;;;13.40;84.30;;;;;;4975430;28;20042;-62
2022/12/31 02:54:01;;;;;;;0.70;0.32;;;13.40;84.10;;;;;;4972930;28;20061;-62
2022/12/31 02:57:03;;;;;;;0.52;0.20;;;13.40;84.00;;;;;;4972511;28;20034;-62
2022/12/31 03:02:29;;;;;;;0.65;0.15;;;13.40;83.90;;;;;;4975543;28;20142;-61
2022/12/31 03:04:56;;;;;;;0.77;0.30;;;13.50;83.80;;;;;;4979206;28;20085;-63
2022/12/31 03:07:25;;;;;;;0.38;0.20;;;13.50;83.90;;;;;;4972862;28;20618;-61
2022/12/31 03:09:51;;;;;;;0.20;0.20;;;13.50;83.90;;;;;;4976115;28;20304;-62
2022/12/31 03:15:05;;;;;;;0.55;0.30;;;13.50;83.80;;;;;;4968165;28;20067;-63
2022/12/31 03:17:34;;;;;;;0.47;0.20;;;13.60;83.80;;;;;;4967182;28;20042;-62
2022/12/31 03:22:44;;;;;;;0.57;0.20;;;13.60;83.80;;;;;;4977500;28;20069;-60
2022/12/31 03:27:57;;;;;;;0.20;0.20;;;13.60;83.70;;;;;;4982672;28;20049;-61
2022/12/31 03:30:23;;;;;;;1.08;0.20;;;13.70;83.60;;;;;;4977969;28;20042;-61
2022/12/31 03:32:50;;;;;;;0.35;0.20;;;13.70;83.60;;;;;;4969783;28;20069;-61
2022/12/31 03:35:19;;;;;;;0.80;0.30;;;13.70;83.40;;;;;;4977184;28;20132;-62
2022/12/31 03:37:45;;;;;;;0.20;0.10;;;13.80;83.40;;;;;;4976222;28;20042;-61
2022/12/31 03:40:12;;;;;;;0.88;0.20;;;13.80;83.30;;;;;;4977639;28;20736;-59
2022/12/31 03:42:39;;;;;;;0.20;0.20;;;13.80;83.10;;;;;;4976228;28;20498;-62
2022/12/31 03:45:05;;;;;;;0.28;0.20;;;13.90;83.20;;;;;;4974388;28;20047;-62
2022/12/31 03:47:31;;;;;;;0.25;0.25;;;13.80;83.10;;;;;;4972673;28;20038;-63
2022/12/31 03:49:57;;;;;;;0.20;0.20;;;13.90;83.10;;;;;;4975673;28;20049;-60
2022/12/31 03:52:22;;;;;;;1.45;0.17;;;13.90;83.10;;;;;;4978383;28;20038;-61
2022/12/31 03:54:48;;;;;;;0.77;0.30;;;13.90;82.90;;;;;;4975469;28;20030;-61
2022/12/31 03:57:14;;;;;;;0.20;0.20;;;14.00;82.90;;;;;;4976563;28;20054;-60
2022/12/31 03:59:39;;;;;;;0.20;0.20;;;14.00;82.90;;;;;;4981283;28;20647;-61
2022/12/31 04:02:05;;;;;;;2.05;0.30;;;14.00;82.80;;;;;;4977863;28;20081;-60
2022/12/31 04:04:31;;;;;;;0.22;0.20;;;14.00;82.70;;;;;;4977637;28;20034;-61
2022/12/31 04:06:57;;;;;;;0.30;0.20;;;14.10;82.70;;;;;;4978297;28;20429;-61
2022/12/31 04:09:22;;;;;;;0.30;0.20;;;14.10;82.70;;;;;;4978823;28;20045;-62
2022/12/31 04:11:48;;;;;;;0.20;0.20;;;14.10;82.70;;;;;;4972890;28;20041;-62
2022/12/31 04:14:15;;;;;;;0.30;0.30;;;14.20;82.70;;;;;;4977225;28;20152;-62
2022/12/31 04:16:41;;;;;;;0.25;0.13;;;14.10;82.70;;;;;;4974554;28;20038;-61
2022/12/31 04:19:07;;;;;;;0.20;0.20;;;14.10;82.70;;;;;;4977378;28;20038;-62
2022/12/31 04:21:33;;;;;;;1.30;0.30;;;14.20;82.70;;;;;;4975020;28;20576;-62
2022/12/31 04:23:58;;;;;;;1.88;0.60;;;14.20;82.70;;;;;;4978484;28;20568;-62
2022/12/31 04:26:24;;;;;;;20.52;8.63;;;14.20;82.70;;;;;;4975469;28;20414;-61
2022/12/31 04:28:49;;;;;;;22.25;12.60;;;14.20;82.70;;;;;;4979937;28;20383;-61
2022/12/31 04:31:15;;;;;;;7.22;5.07;;;14.20;82.60;;;;;;4977378;28;20041;-62
2022/12/31 04:33:41;;;;;;;5.50;4.22;;;14.20;82.60;;;;;;4981582;28;20035;-61
2022/12/31 04:36:07;;;;;;;30.10;15.73;;;14.20;82.60;;;;;;4981547;28;20047;-60
2022/12/31 04:38:33;;;;;;;27.35;18.15;;;14.20;82.60;;;;;;4981240;28;20038;-62
2022/12/31 04:41:17;;;;;;;16.50;11.13;;;14.20;82.50;;;;;;4981611;28;20183;-60
2022/12/31 04:43:50;;;;;;;2.60;2.35;;;14.20;82.40;;;;;;4984306;28;20030;-62
2022/12/31 04:46:19;;;;;;;1.88;1.40;;;14.20;82.30;;;;;;4982723;28;20121;-61
2022/12/31 04:48:45;;;;;;;1.23;0.82;;;14.20;82.30;;;;;;4982572;28;20569;-62
2022/12/31 04:51:11;;;;;;;0.65;0.43;;;14.20;82.20;;;;;;4980024;28;20038;-62
2022/12/31 04:53:37;;;;;;;0.30;0.30;;;14.20;82.20;;;;;;4985984;28;20050;-62
2022/12/31 04:56:03;;;;;;;0.25;0.25;;;14.20;82.20;;;;;;4981788;28;20044;-62
2022/12/31 04:58:28;;;;;;;0.40;0.40;;;14.20;82.20;;;;;;4982318;28;20053;-62
2022/12/31 05:00:55;;;;;;;2.63;1.15;;;14.20;82.10;;;;;;4979989;28;20453;-60
2022/12/31 05:03:22;;;;;;;0.30;0.30;;;14.20;82.10;;;;;;4980638;28;20050;-60
2022/12/31 05:05:48;;;;;;;0.25;0.25;;;14.20;82.00;;;;;;4981270;28;20601;-62
2022/12/31 05:08:15;;;;;;;0.20;0.20;;;14.20;82.00;;;;;;4983275;28;20510;-62
2022/12/31 05:10:47;;;;;;;0.20;0.20;;;14.20;82.00;;;;;;4978619;28;20037;-62
2022/12/31 05:13:14;;;;;;;1.77;0.28;;;14.20;82.00;;;;;;4979204;28;20156;-62
2022/12/31 05:15:39;;;;;;;0.13;0.13;;;14.20;81.90;;;;;;4981030;28;20589;-60
2022/12/31 05:18:06;;;;;;;0.50;0.30;;;14.20;81.80;;;;;;4984581;28;20125;-61
2022/12/31 05:20:31;;;;;;;0.30;0.30;;;14.20;81.70;;;;;;4984923;28;20445;-60
2022/12/31 05:22:57;;;;;;;0.30;0.25;;;14.20;81.70;;;;;;4985362;28;20085;-62
2022/12/31 05:25:22;;;;;;;0.20;0.20;;;14.20;81.60;;;;;;4982343;28;20108;-63
2022/12/31 05:27:48;;;;;;;0.82;0.30;;;14.20;81.60;;;;;;4981616;28;20062;-62
2022/12/31 05:30:14;;;;;;;0.40;0.30;;;14.20;81.60;;;;;;4982605;28;20519;-61
2022/12/31 05:32:40;;;;;;;2.88;2.35;;;14.20;81.50;;;;;;4982668;28;20065;-62
2022/12/31 05:35:06;;;;;;;2.65;1.95;;;14.20;81.40;;;;;;4985112;28;20037;-62
2022/12/31 05:37:32;;;;;;;0.60;0.50;;;14.20;81.30;;;;;;4982443;28;20170;-60
2022/12/31 05:39:58;;;;;;;1.20;0.32;;;14.20;81.30;;;;;;4982408;28;20050;-60
2022/12/31 05:42:24;;;;;;;0.40;0.22;;;14.20;81.20;;;;;;4982773;28;20585;-60
2022/12/31 05:44:50;;;;;;;1.05;0.30;;;14.20;81.20;;;;;;4979586;28;20053;-62
2022/12/31 05:47:16;;;;;;;0.38;0.20;;;14.20;81.20;;;;;;4984864;28;20042;-62
2022/12/31 05:49:42;;;;;;;0.20;0.20;;;14.10;81.00;;;;;;4984039;28;20035;-61
2022/12/31 05:52:07;;;;;;;0.40;0.38;;;14.10;81.00;;;;;;4980982;28;20073;-60
2022/12/31 05:54:33;;;;;;;0.32;0.32;;;14.10;80.80;;;;;;4981116;28;20117;-62
2022/12/31 05:56:59;;;;;;;0.35;0.30;;;14.10;81.70;;;;;;4980357;28;20034;-62
2022/12/31 05:59:24;;;;;;;0.68;0.38;;;14.00;80.80;;;;;;4979501;28;20492;-60
2022/12/31 06:01:50;;;;;;;0.30;0.30;;;14.00;80.80;;;;;;4963838;28;20556;-61
2022/12/31 06:04:16;;;;;;;0.57;0.28;;;14.00;80.70;;;;;;4980494;28;20030;-61
2022/12/31 06:06:42;;;;;;;0.52;0.28;;;14.00;80.70;;;;;;4981345;28;20123;-62
2022/12/31 06:09:07;;;;;;;0.77;0.35;;;13.90;81.60;;;;;;4978573;28;20513;-61
2022/12/31 06:11:33;;;;;;;0.40;0.38;;;13.90;80.80;;;;;;4974648;28;20498;-61
2022/12/31 06:13:58;;;;;;;2.65;0.47;;;13.80;80.80;;;;;;4974968;28;20047;-63
2022/12/31 06:16:24;;;;;;;0.60;0.50;;;13.80;81.00;;;;;;4982763;28;20033;-61
2022/12/31 06:18:50;;;;;;;0.57;0.55;;;13.80;81.20;;;;;;4978457;28;20410;-63
2022/12/31 06:21:16;;;;;;;0.40;0.40;;;13.70;81.20;;;;;;4978502;28;20180;-62
2022/12/31 06:23:42;;;;;;;0.30;0.20;;;13.70;81.30;;;;;;4974689;28;20026;-62
2022/12/31 06:26:08;;;;;;;0.55;0.55;;;13.70;81.40;;;;;;4974281;28;20038;-62
2022/12/31 06:28:34;;;;;;;0.50;0.50;;;13.70;81.50;;;;;;4977097;28;20034;-63
2022/12/31 06:31:06;;;;;;;0.60;0.60;;;13.60;81.50;;;;;;4979378;28;20042;-60
2022/12/31 06:33:32;;;;;;;0.60;0.60;;;13.70;81.70;;;;;;4978284;28;20041;-61
2022/12/31 06:36:00;;;;;;;0.30;0.30;;;13.70;81.70;;;;;;4981409;28;20037;-62
2022/12/31 06:38:27;;;;;;;0.85;0.80;;;13.70;81.70;;;;;;4979289;28;20046;-61
2022/12/31 06:40:53;;;;;;;0.98;0.98;;;13.70;81.80;;;;;;4974394;28;20138;-60
2022/12/31 06:43:19;;;;;;;1.02;0.93;;;13.70;81.80;;;;;;4978394;28;20129;-61
2022/12/31 06:45:45;;;;;;;0.63;0.47;;;13.70;81.80;;;;;;4980636;28;20062;-60
2022/12/31 06:48:11;;;;;;;0.65;0.65;;;13.70;81.70;;;;;;4980493;28;20066;-62
2022/12/31 06:50:36;;;;;;;0.70;0.70;;;13.80;81.90;;;;;;4980839;28;20704;-61
2022/12/31 06:53:02;;;;;;;1.55;0.50;;;13.80;81.70;;;;;;4979586;28;20035;-61
2022/12/31 06:55:28;;;;;;;0.93;0.32;;;13.80;81.70;;;;;;4983777;28;20063;-62
2022/12/31 06:57:53;;;;;;;0.32;0.32;;;13.80;81.50;;;;;;4983417;28;20043;-62
2022/12/31 07:00:20;;;;;;;1.55;0.30;;;13.80;81.50;;;;;;4979898;28;20043;-63
2022/12/31 07:03:21;;;;;;;0.63;0.43;;;13.80;81.50;;;;;;4979715;28;20096;-61
2022/12/31 07:06:12;;;;;;;2.80;0.38;;;13.80;81.40;;;;;;4979583;28;20042;-60
2022/12/31 07:09:09;;;;;;;0.20;0.20;;;13.80;81.40;;;;;;4979504;28;20049;-60
2022/12/31 07:11:45;;;;;;;0.35;0.35;;;13.80;81.30;;;;;;4975065;28;20066;-62
2022/12/31 07:14:32;;;;;;;1.08;0.40;;;13.80;81.30;;;;;;4976721;28;20157;-62
2022/12/31 07:17:32;;;;;;;0.50;0.43;;;13.70;81.30;;;;;;4976543;28;20550;-62
2022/12/31 07:20:16;;;;;;;0.68;0.50;;;13.70;81.20;;;;;;4979269;28;20034;-62
2022/12/31 07:22:44;;;;;;;0.68;0.30;;;13.70;81.30;;;;;;4973586;28;20114;-62
2022/12/31 07:25:13;;;;;;;0.57;0.40;;;13.70;81.30;;;;;;4979261;28;20041;-62
2022/12/31 07:28:00;;;;;;;0.40;0.40;;;13.70;81.40;;;;;;4977821;28;20308;-60
2022/12/31 07:30:55;;;;;;;0.75;0.43;;;13.60;81.20;;;;;;4974606;28;20387;-62
2022/12/31 07:33:48;;;;;;;1.07;0.50;;;13.60;81.20;;;;;;4974658;28;20046;-60
2022/12/31 07:36:44;;;;;;;0.60;0.55;;;13.60;81.10;;;;;;4975859;28;20285;-61
2022/12/31 07:39:12;;;;;;;0.45;0.45;;;13.60;81.20;;;;;;4978907;28;20073;-62
2022/12/31 07:41:53;;;;;;;0.80;0.77;;;13.60;81.20;;;;;;4974576;28;20059;-60
2022/12/31 07:44:44;;;;;;;0.60;0.50;;;13.50;81.20;;;;;;4981177;28;20042;-60
2022/12/31 07:47:28;;;;;;;1.10;0.80;;;13.50;81.20;;;;;;4974326;28;20093;-61
2022/12/31 07:49:55;;;;;;;0.75;0.75;;;13.50;81.20;;;;;;4977910;28;20034;-62
2022/12/31 07:52:22;;;;;;;0.95;0.90;;;13.40;81.30;;;;;;4977891;28;20099;-61
2022/12/31 07:54:47;;;;;;;1.63;0.90;;;13.40;81.30;;;;;;4979395;28;20113;-62
2022/12/31 07:57:17;;;;;;;0.98;0.90;;;13.40;81.40;;;;;;4976492;28;20618;-61
2022/12/31 08:00:04;;;;;;;1.20;0.80;;;13.40;81.50;;;;;;4974653;28;20494;-63
2022/12/31 08:02:48;;;;;;;1.00;0.90;;;13.30;82.30;;;;;;4974187;28;20046;-62
2022/12/31 08:05:30;;;;;;;1.55;0.88;;;13.30;81.60;;;;;;4979793;28;20053;-60
2022/12/31 08:08:04;;;;;;;2.22;0.75;;;13.30;81.60;;;;;;4978521;28;20129;-60
2022/12/31 08:11:02;;;;;;;;;;;13.20;81.60;;;;;;4975545;28;20031;-61
2022/12/31 08:13:29;;;;;;;0.80;0.80;;;13.30;81.70;;;;;;4939302;28;20033;-62
2022/12/31 08:15:54;;;;;;;0.80;0.80;;;13.20;81.50;;;;;;4963598;28;20429;-62
2022/12/31 08:18:20;;;;;;;0.70;0.63;;;13.10;81.70;;;;;;4972388;28;20042;-59
2022/12/31 08:21:04;;;;;;;0.73;0.73;;;13.10;81.90;;;;;;4975421;28;20058;-61
2022/12/31 08:24:04;;;;;;;1.25;0.60;;;13.10;82.10;;;;;;4975928;28;20425;-63
2022/12/31 08:26:58;;;;;;;2.30;0.50;;;13.10;82.20;;;;;;4961592;28;20038;-63
2022/12/31 08:29:36;;;;;;;1.27;0.60;;;13.00;82.20;;;;;;4979145;28;20498;-61
2022/12/31 08:32:21;;;;;;;1.00;0.70;;;13.00;82.30;;;;;;4985227;28;20076;-62
2022/12/31 08:35:09;;;;;;;0.90;0.80;;;13.00;82.40;;;;;;4980288;28;20039;-60
2022/12/31 08:38:01;;;;;;;0.85;0.68;;;13.00;82.50;;;;;;4986372;28;20128;-62
2022/12/31 08:40:46;;;;;;;0.85;0.70;;;13.00;82.60;;;;;;4973113;28;20509;-61
2022/12/31 08:43:32;;;;;;;1.25;1.15;;;13.00;82.60;;;;;;4979908;28;20057;-63
2022/12/31 08:45:59;;;;;;;1.77;1.38;;;13.10;82.80;;;;;;4979205;28;20026;-61
2022/12/31 08:48:33;;;;;;;2.08;1.15;;;13.00;83.60;;;;;;4976999;28;20545;-63
2022/12/31 08:50:59;;;;;;;2.80;2.00;;;13.00;82.80;;;;;;4977143;28;20045;-62
2022/12/31 08:53:25;;;;;;;3.08;1.90;;;13.10;82.90;;;;;;4970067;28;21459;-60
2022/12/31 08:55:59;;;;;;;2.30;1.50;;;13.10;82.80;;;;;;4974965;28;20057;-61
2022/12/31 08:58:48;;;;;;;1.60;0.90;;;13.10;82.80;;;;;;4959611;28;20049;-62
2022/12/31 09:01:17;;;;;;;0.90;0.70;;;13.10;82.90;;;;;;4974366;28;20039;-62
2022/12/31 09:03:58;;;;;;;1.20;0.73;;;13.20;82.90;;;;;;4972865;28;20078;-60
2022/12/31 09:06:34;;;;;;;1.42;1.08;;;13.20;82.80;;;;;;4975968;28;20034;-61
2022/12/31 09:09:20;;;;;;;1.85;1.10;;;13.20;82.70;;;;;;4975227;28;20180;-62
2022/12/31 09:11:53;;;;;;;;;;;13.30;82.60;;;;;;4975765;28;20134;-61
2022/12/31 09:14:40;;;;;;;0.95;0.70;;;13.40;82.60;;;;;;4982373;28;20202;-63
2022/12/31 09:17:32;;;;;;;1.20;1.10;;;13.40;82.50;;;;;;4974741;28;20038;-62
2022/12/31 09:19:58;;;;;;;2.75;1.95;;;13.40;82.40;;;;;;4981602;28;20197;-61
2022/12/31 09:22:24;;;;;;;1.48;1.38;;;13.50;82.40;;;;;;4977646;28;20164;-62
2022/12/31 09:24:50;;;;;;;2.55;1.40;;;13.50;82.40;;;;;;4978449;28;20041;-62
2022/12/31 09:27:31;;;;;;;5.15;4.65;;;13.60;82.40;;;;;;4981243;28;20398;-60
2022/12/31 09:30:12;;;;;;;4.22;3.83;;;13.60;82.30;;;;;;4981351;28;20173;-62
2022/12/31 09:32:57;;;;;;;2.10;2.00;;;13.60;82.40;;;;;;4977645;28;20375;-62
2022/12/31 09:35:41;;;;;;;1.20;1.10;;;13.70;82.40;;;;;;4969235;28;20125;-62
2022/12/31 09:38:39;;;;;;;1.05;0.80;;;13.70;82.40;;;;;;4973900;28;20038;-61
2022/12/31 09:41:24;;;;;;;0.70;0.50;;;13.80;82.30;;;;;;4977357;28;20027;-62
2022/12/31 09:44:22;;;;;;;1.48;0.47;;;13.90;82.30;;;;;;4980964;28;20529;-61
2022/12/31 09:47:13;;;;;;;0.68;0.40;;;14.00;82.30;;;;;;4981689;28;20498;-61
2022/12/31 09:49:57;;;;;;;1.00;0.60;;;14.10;82.00;;;;;;4969617;28;20162;-60
2022/12/31 09:53:04;;;;;;;0.68;0.45;;;14.20;82.00;;;;;;4980134;28;20043;-63
2022/12/31 09:55:41;;;;;;;0.80;0.60;;;14.20;82.00;;;;;;4977238;28;20035;-62
2022/12/31 09:58:15;;;;;;;0.50;0.40;;;14.30;82.10;;;;;;4976217;28;20054;-59
2022/12/31 10:00:51;;;;;;;0.70;0.50;;;14.40;81.80;;;;;;4974881;28;20636;-61
2022/12/31 10:03:48;;;;;;;1.48;0.55;;;14.60;81.70;;;;;;4974132;28;20408;-61
2022/12/31 10:06:38;;;;;;;1.65;0.80;;;14.60;81.20;;;;;;4975034;28;20130;-62
2022/12/31 10:09:15;;;;;;;1.13;1.02;;;14.70;81.00;;;;;;4974187;28;20085;-61
2022/12/31 10:12:17;;;;;;;1.92;0.90;;;14.80;81.60;;;;;;4971093;28;20666;-61
2022/12/31 10:15:10;;;;;;;0.77;0.77;;;14.80;80.80;;;;;;4977072;28;20073;-62
2022/12/31 10:17:47;;;;;;;0.73;0.60;;;14.90;80.90;;;;;;4976479;28;20038;-61
2022/12/31 10:20:26;;;;;;;0.55;0.52;;;15.00;80.60;;;;;;4970102;28;20450;-59
2022/12/31 10:23:09;;;;;;;2.03;0.60;;;15.10;80.50;;;;;;4979465;28;20088;-63
2022/12/31 10:25:46;;;;;;;1.48;0.80;;;15.10;80.30;;;;;;4979401;28;20045;-60
2022/12/31 10:28:18;;;;;;;1.33;0.60;;;15.20;80.30;;;;;;4977402;28;20034;-63
2022/12/31 10:30:58;;;;;;;0.50;0.50;;;15.20;80.50;;;;;;4979085;28;20442;-61
2022/12/31 10:33:29;;;;;;;0.88;0.50;;;15.30;80.10;;;;;;4979027;28;20042;-59
2022/12/31 10:35:58;;;;;;;0.60;0.60;;;15.30;80.30;;;;;;4979320;28;20037;-61
2022/12/31 10:38:45;;;;;;;0.60;0.60;;;15.40;80.30;;;;;;4980053;28;20039;-63
2022/12/31 10:41:42;;;;;;;0.80;0.60;;;15.40;79.70;;;;;;4975952;28;20079;-62
2022/12/31 10:44:45;;;;;;;0.63;0.63;;;15.50;79.60;;;;;;4978292;28;20109;-62
2022/12/31 10:47:44;;;;;;;0.50;0.47;;;15.60;79.50;;;;;;4884200;29;20044;-60
2022/12/31 10:50:41;;;;;;;0.50;0.50;;;15.70;79.50;;;;;;4977371;28;20050;-60
2022/12/31 10:53:12;;;;;;;0.93;0.60;;;15.70;79.50;;;;;;4979460;28;20039;-62
2022/12/31 10:56:14;;;;;;;0.55;0.43;;;15.80;79.40;;;;;;4976670;28;20339;-62
2022/12/31 10:59:06;;;;;;;1.75;1.63;;;15.90;79.10;;;;;;4982982;28;20043;-62
2022/12/31 11:01:59;;;;;;;0.80;0.80;;;16.00;79.10;;;;;;4975047;28;20117;-62
2022/12/31 11:04:34;;;;;;;1.33;0.60;;;16.10;78.90;;;;;;4985365;28;20035;-63
2022/12/31 11:07:14;;;;;;;0.50;0.50;;;16.10;79.10;;;;;;4982467;28;20491;-61
2022/12/31 11:09:39;;;;;;;0.30;0.25;;;16.20;78.70;;;;;;4981806;28;20468;-62
2022/12/31 11:12:21;;;;;;;0.45;0.40;;;16.30;78.60;;;;;;4977018;28;21098;-63
2022/12/31 11:14:52;;;;;;;1.65;0.75;;;16.30;78.00;;;;;;4983888;28;20122;-60
2022/12/31 11:17:36;;;;;;;1.05;0.60;;;16.40;78.20;;;;;;4984064;28;20038;-62
2022/12/31 11:20:22;;;;;;;1.40;1.27;;;16.40;78.00;;;;;;4980079;28;20051;-62
2022/12/31 11:23:00;;;;;;;1.20;0.68;;;16.50;76.10;;;;;;4982122;28;20026;-60
2022/12/31 11:25:34;;;;;;;0.52;0.52;;;16.60;77.30;;;;;;4983403;28;20023;-62
2022/12/31 11:28:22;;;;;;;0.77;0.77;;;16.70;77.20;;;;;;4982377;28;20030;-62
2022/12/31 11:30:54;;;;;;;1.77;0.50;;;16.80;76.60;;;;;;4981682;28;20078;-62
2022/12/31 11:33:36;;;;;;;0.80;0.50;;;16.80;76.70;;;;;;4983144;28;20456;-62
2022/12/31 11:36:08;;;;;;;0.65;0.40;;;16.90;76.00;;;;;;4980878;28;20126;-62
2022/12/31 11:38:39;;;;;;;1.58;0.52;;;17.00;75.40;;;;;;4973873;28;20041;-63
2022/12/31 11:41:23;;;;;;;0.80;0.70;;;17.00;75.60;;;;;;4981055;28;20049;-61
2022/12/31 11:43:57;;;;;;;0.50;0.50;;;17.10;75.10;;;;;;4980318;28;20034;-63
2022/12/31 11:46:58;;;;;;;0.63;0.45;;;17.20;75.30;;;;;;4980087;28;20417;-62
2022/12/31 11:49:27;;;;;;;1.23;0.90;;;17.20;75.60;;;;;;4887741;29;20656;-62
2022/12/31 11:52:14;;;;;;;0.90;0.80;;;17.30;74.90;;;;;;4961707;28;20177;-61
2022/12/31 11:55:04;;;;;;;0.52;0.50;;;17.30;73.90;;;;;;4979414;28;20043;-63
2022/12/31 11:57:38;;;;;;;1.00;0.45;;;17.40;74.40;;;;;;4979970;28;20054;-60
2022/12/31 12:00:12;;;;;;;0.80;0.20;;;17.40;74.30;;;;;;4980488;28;20037;-63
2022/12/31 12:02:57;;;;;;;0.30;0.30;;;17.50;74.20;;;;;;4981104;28;20032;-62
2022/12/31 12:05:24;;;;;;;0.80;0.30;;;17.50;73.50;;;;;;4980557;28;20133;-60
2022/12/31 12:07:51;;;;;;;0.30;0.30;;;17.50;73.90;;;;;;4983343;28;20458;-62
2022/12/31 12:10:30;;;;;;;0.85;0.30;;;17.60;73.50;;;;;;4980005;28;20426;-62
2022/12/31 12:12:57;;;;;;;0.40;0.35;;;17.70;73.00;;;;;;4977553;28;20035;-63
2022/12/31 12:15:27;;;;;;;0.30;0.30;;;17.60;73.00;;;;;;4976003;28;20042;-63
2022/12/31 12:17:56;;;;;;;0.30;0.30;;;17.70;72.60;;;;;;4979118;28;20035;-63
2022/12/31 12:20:42;;;;;;;0.20;0.20;;;17.80;72.60;;;;;;4980167;28;20525;-61
2022/12/31 12:23:15;;;;;;;0.80;0.20;;;17.90;71.00;;;;;;4980826;28;20057;-62
2022/12/31 12:25:43;;;;;;;0.20;0.20;;;17.80;71.80;;;;;;4979164;28;20034;-62
2022/12/31 12:28:19;;;;;;;1.67;0.20;;;17.80;71.80;;;;;;4980006;28;20043;-61
2022/12/31 12:30:53;;;;;;;0.50;0.30;;;17.80;71.10;;;;;;4982182;28;20118;-62
2022/12/31 12:33:19;;;;;;;0.38;0.38;;;17.90;71.70;;;;;;4980403;28;20042;-63
2022/12/31 12:35:46;;;;;;;0.95;0.30;;;17.90;71.60;;;;;;4981952;28;20080;-62
2022/12/31 12:38:18;;;;;;;0.75;0.50;;;17.90;71.50;;;;;;4981398;28;20046;-62
2022/12/31 12:41:01;;;;;;;0.65;0.50;;;17.90;70.90;;;;;;4980549;28;20548;-63
2022/12/31 12:43:33;;;;;;;0.50;0.30;;;17.90;70.40;;;;;;4980579;28;20049;-60
2022/12/31 12:46:03;;;;;;;0.55;0.30;;;17.90;70.40;;;;;;4982827;28;20088;-62
2022/12/31 12:48:31;;;;;;;0.40;0.38;;;18.00;70.60;;;;;;4983834;28;20052;-60
2022/12/31 12:50:58;;;;;;;0.77;0.60;;;18.00;70.30;;;;;;4978587;28;20136;-62
2022/12/31 12:54:04;;;;;;;0.43;0.38;;;17.90;70.10;;;;;;4982903;28;20390;-62
2022/12/31 12:56:35;;;;;;;0.70;0.70;;;17.90;69.80;;;;;;4941690;28;20061;-63
2022/12/31 12:59:11;;;;;;;0.60;0.60;;;17.90;70.00;;;;;;4981914;28;20446;-61
2022/12/31 13:02:10;;;;;;;0.80;0.80;;;18.00;69.60;;;;;;4980084;28;20089;-62
2022/12/31 13:05:03;;;;;;;0.65;0.65;;;18.00;69.50;;;;;;4983927;28;20065;-61
2022/12/31 13:07:32;;;;;;;0.70;0.50;;;17.90;68.90;;;;;;4985502;28;20045;-62
2022/12/31 13:10:26;;;;;;;0.50;0.50;;;17.90;69.90;;;;;;4982433;28;20097;-61
2022/12/31 13:13:19;;;;;;;1.48;0.57;;;17.90;69.20;;;;;;4980575;28;20063;-61
2022/12/31 13:16:05;;;;;;;0.40;0.35;;;17.90;69.40;;;;;;4985867;28;20043;-62
2022/12/31 13:18:44;;;;;;;0.50;0.28;;;17.90;69.60;;;;;;4985146;28;20042;-63
2022/12/31 13:21:34;;;;;;;1.00;0.30;;;17.90;70.10;;;;;;4982233;28;20046;-62
2022/12/31 13:24:14;;;;;;;0.90;0.47;;;17.90;70.00;;;;;;4978905;28;20050;-63
2022/12/31 13:26:47;;;;;;;0.70;0.30;;;17.80;70.50;;;;;;4982615;28;20026;-60
2022/12/31 13:29:22;;;;;;;0.95;0.30;;;17.80;70.40;;;;;;4988231;28;20066;-63
2022/12/31 13:31:50;;;;;;;0.82;0.30;;;17.80;70.40;;;;;;4984593;28;20073;-63
2022/12/31 13:34:32;;;;;;;0.30;0.30;;;17.80;70.70;;;;;;4984371;28;20402;-63